sensor_id;sensor_type;location;lat;lon;timestamp;pressure;altitude;pressure_sealevel;temperature;humidity
74075;BME280;62428;51.412;5.432;2022-09-21T00:00:50;102472.84;;;10.80;80.74
74075;BME280;62428;51.412;5.432;2022-09-21T00:03:16;102484.94;;;10.77;80.86
74075;BME280;62428;51.412;5.432;2022-09-21T00:05:41;102482.25;;;10.77;80.88
74075;BME280;62428;51.412;5.432;2022-09-21T00:08:07;102477.59;;;10.72;80.98
74075;BME280;62428;51.412;5.432;2022-09-21T00:10:35;102480.00;;;10.69;80.75
74075;BME280;62428;51.412;5.432;2022-09-21T00:13:00;102477.00;;;10.65;80.68
74075;BME280;62428;51.412;5.432;2022-09-21T00:15:29;102475.88;;;10.61;80.55
74075;BME280;62428;51.412;5.432;2022-09-21T00:17:56;102474.50;;;10.58;80.54
74075;BME280;62428;51.412;5.432;2022-09-21T00:20:23;102459.94;;;10.54;81.05
74075;BME280;62428;51.412;5.432;2022-09-21T00:22:49;102472.00;;;10.52;80.58
74075;BME280;62428;51.412;5.432;2022-09-21T00:25:15;102469.56;;;10.50;80.45
74075;BME280;62428;51.412;5.432;2022-09-21T00:27:41;102474.63;;;10.47;80.50
74075;BME280;62428;51.412;5.432;2022-09-21T00:30:07;102472.38;;;10.38;80.64
74075;BME280;62428;51.412;5.432;2022-09-21T00:32:35;102468.81;;;10.33;80.86
74075;BME280;62428;51.412;5.432;2022-09-21T00:35:02;102474.13;;;10.28;81.24
74075;BME280;62428;51.412;5.432;2022-09-21T00:37:29;102474.59;;;10.25;81.43
74075;BME280;62428;51.412;5.432;2022-09-21T00:39:55;102480.22;;;10.23;81.27
74075;BME280;62428;51.412;5.432;2022-09-21T00:42:29;102478.09;;;10.25;81.28
74075;BME280;62428;51.412;5.432;2022-09-21T00:44:55;102481.03;;;10.24;81.44
74075;BME280;62428;51.412;5.432;2022-09-21T00:49:55;102484.03;;;10.27;81.92
74075;BME280;62428;51.412;5.432;2022-09-21T00:52:23;102481.34;;;10.27;81.69
74075;BME280;62428;51.412;5.432;2022-09-21T00:54:53;102482.44;;;10.26;81.47
74075;BME280;62428;51.412;5.432;2022-09-21T00:57:22;102490.47;;;10.26;81.80
74075;BME280;62428;51.412;5.432;2022-09-21T00:59:50;102485.59;;;10.23;81.23
74075;BME280;62428;51.412;5.432;2022-09-21T01:02:18;102482.09;;;10.23;81.32
74075;BME280;62428;51.412;5.432;2022-09-21T01:04:44;102486.91;;;10.20;81.14
74075;BME280;62428;51.412;5.432;2022-09-21T01:07:14;102483.09;;;10.16;81.40
74075;BME280;62428;51.412;5.432;2022-09-21T01:09:44;102484.16;;;10.15;81.29
74075;BME280;62428;51.412;5.432;2022-09-21T01:13:12;102483.34;;;10.15;81.03
74075;BME280;62428;51.412;5.432;2022-09-21T01:24:07;102483.28;;;10.10;80.91
74075;BME280;62428;51.412;5.432;2022-09-21T01:29:25;102489.69;;;10.09;81.21
74075;BME280;62428;51.412;5.432;2022-09-21T01:32:08;102485.09;;;10.04;81.20
74075;BME280;62428;51.412;5.432;2022-09-21T01:34:47;102488.25;;;10.01;81.57
74075;BME280;62428;51.412;5.432;2022-09-21T01:37:19;102476.47;;;10.02;81.95
74075;BME280;62428;51.412;5.432;2022-09-21T01:39:51;102489.91;;;10.02;82.04
74075;BME280;62428;51.412;5.432;2022-09-21T01:42:18;102487.22;;;10.02;81.64
74075;BME280;62428;51.412;5.432;2022-09-21T01:44:46;102479.16;;;10.02;81.79
74075;BME280;62428;51.412;5.432;2022-09-21T01:47:17;102479.41;;;10.00;81.83
74075;BME280;62428;51.412;5.432;2022-09-21T01:49:46;102485.00;;;9.99;81.84
74075;BME280;62428;51.412;5.432;2022-09-21T01:52:20;102483.13;;;9.99;81.90
74075;BME280;62428;51.412;5.432;2022-09-21T01:54:55;102481.53;;;9.98;81.69
74075;BME280;62428;51.412;5.432;2022-09-21T02:00:24;102476.88;;;9.94;81.88
74075;BME280;62428;51.412;5.432;2022-09-21T02:02:54;102479.81;;;9.92;82.07
74075;BME280;62428;51.412;5.432;2022-09-21T02:05:24;102477.94;;;9.93;82.04
74075;BME280;62428;51.412;5.432;2022-09-21T02:07:51;102483.56;;;9.91;82.19
74075;BME280;62428;51.412;5.432;2022-09-21T02:10:22;102480.28;;;9.89;82.38
74075;BME280;62428;51.412;5.432;2022-09-21T02:12:52;102483.25;;;9.88;81.56
74075;BME280;62428;51.412;5.432;2022-09-21T02:15:31;102476.00;;;9.88;81.85
74075;BME280;62428;51.412;5.432;2022-09-21T02:20:53;102470.56;;;9.83;81.96
74075;BME280;62428;51.412;5.432;2022-09-21T02:26:12;102469.91;;;9.76;81.94
74075;BME280;62428;51.412;5.432;2022-09-21T02:28:47;102474.63;;;9.69;81.46
74075;BME280;62428;51.412;5.432;2022-09-21T02:31:54;102470.81;;;9.65;81.52
74075;BME280;62428;51.412;5.432;2022-09-21T02:34:39;102470.50;;;9.61;81.71
74075;BME280;62428;51.412;5.432;2022-09-21T02:37:20;102469.44;;;9.62;81.45
74075;BME280;62428;51.412;5.432;2022-09-21T02:42:30;102469.38;;;9.57;81.71
74075;BME280;62428;51.412;5.432;2022-09-21T02:45:14;102469.59;;;9.55;81.36
74075;BME280;62428;51.412;5.432;2022-09-21T02:47:49;102467.66;;;9.51;81.44
74075;BME280;62428;51.412;5.432;2022-09-21T02:50:23;102473.84;;;9.51;81.66
74075;BME280;62428;51.412;5.432;2022-09-21T02:52:50;102472.22;;;9.50;81.61
74075;BME280;62428;51.412;5.432;2022-09-21T02:55:17;102471.06;;;9.46;81.37
74075;BME280;62428;51.412;5.432;2022-09-21T02:57:45;102466.19;;;9.43;81.45
74075;BME280;62428;51.412;5.432;2022-09-21T03:00:14;102469.94;;;9.42;81.58
74075;BME280;62428;51.412;5.432;2022-09-21T03:02:42;102467.97;;;9.37;81.36
74075;BME280;62428;51.412;5.432;2022-09-21T03:05:09;102472.53;;;9.37;81.51
74075;BME280;62428;51.412;5.432;2022-09-21T03:07:35;102476.19;;;9.31;80.75
74075;BME280;62428;51.412;5.432;2022-09-21T03:10:00;102473.91;;;9.22;81.24
74075;BME280;62428;51.412;5.432;2022-09-21T03:12:26;102473.81;;;9.17;81.49
74075;BME280;62428;51.412;5.432;2022-09-21T03:14:52;102473.25;;;9.15;81.59
74075;BME280;62428;51.412;5.432;2022-09-21T03:17:18;102475.34;;;9.13;81.21
74075;BME280;62428;51.412;5.432;2022-09-21T03:19:43;102483.63;;;9.12;81.08
74075;BME280;62428;51.412;5.432;2022-09-21T03:22:09;102473.38;;;9.09;81.32
74075;BME280;62428;51.412;5.432;2022-09-21T03:24:34;102476.31;;;9.07;81.02
74075;BME280;62428;51.412;5.432;2022-09-21T03:27:16;102479.25;;;9.06;81.40
74075;BME280;62428;51.412;5.432;2022-09-21T03:29:42;102479.25;;;9.06;81.52
74075;BME280;62428;51.412;5.432;2022-09-21T03:32:08;102475.75;;;9.05;81.30
74075;BME280;62428;51.412;5.432;2022-09-21T03:34:34;102474.38;;;9.02;81.26
74075;BME280;62428;51.412;5.432;2022-09-21T03:37:01;102477.03;;;9.02;81.59
74075;BME280;62428;51.412;5.432;2022-09-21T03:39:26;102481.03;;;9.00;81.27
74075;BME280;62428;51.412;5.432;2022-09-21T03:41:52;102485.56;;;8.99;81.50
74075;BME280;62428;51.412;5.432;2022-09-21T03:44:20;102493.38;;;9.01;81.77
74075;BME280;62428;51.412;5.432;2022-09-21T03:46:45;102488.56;;;9.03;81.64
74075;BME280;62428;51.412;5.432;2022-09-21T03:49:11;102490.69;;;9.01;81.37
74075;BME280;62428;51.412;5.432;2022-09-21T03:51:36;102493.59;;;8.99;81.62
74075;BME280;62428;51.412;5.432;2022-09-21T03:54:03;102491.44;;;8.96;81.72
74075;BME280;62428;51.412;5.432;2022-09-21T03:56:28;102493.50;;;8.94;81.50
74075;BME280;62428;51.412;5.432;2022-09-21T03:58:54;102497.50;;;8.92;81.59
74075;BME280;62428;51.412;5.432;2022-09-21T04:01:19;102492.94;;;8.92;81.96
74075;BME280;62428;51.412;5.432;2022-09-21T04:03:44;102493.78;;;8.93;81.48
74075;BME280;62428;51.412;5.432;2022-09-21T04:06:11;102498.53;;;8.91;81.69
74075;BME280;62428;51.412;5.432;2022-09-21T04:08:37;102496.91;;;8.90;81.52
74075;BME280;62428;51.412;5.432;2022-09-21T04:11:14;102496.34;;;8.88;81.66
74075;BME280;62428;51.412;5.432;2022-09-21T04:13:40;102503.31;;;8.89;81.39
74075;BME280;62428;51.412;5.432;2022-09-21T04:16:09;102490.19;;;8.87;81.33
74075;BME280;62428;51.412;5.432;2022-09-21T04:18:36;102490.88;;;8.82;81.43
74075;BME280;62428;51.412;5.432;2022-09-21T04:21:03;102499.16;;;8.81;81.60
74075;BME280;62428;51.412;5.432;2022-09-21T04:23:30;102496.16;;;8.77;81.49
74075;BME280;62428;51.412;5.432;2022-09-21T04:25:55;102499.28;;;8.74;81.53
74075;BME280;62428;51.412;5.432;2022-09-21T04:28:21;102498.72;;;8.72;81.60
74075;BME280;62428;51.412;5.432;2022-09-21T04:30:51;102500.38;;;8.73;82.10
74075;BME280;62428;51.412;5.432;2022-09-21T04:33:17;102508.97;;;8.75;82.14
74075;BME280;62428;51.412;5.432;2022-09-21T04:35:44;102502.25;;;8.73;81.76
74075;BME280;62428;51.412;5.432;2022-09-21T04:38:09;102506.75;;;8.72;82.02
74075;BME280;62428;51.412;5.432;2022-09-21T04:40:35;102501.41;;;8.72;82.19
74075;BME280;62428;51.412;5.432;2022-09-21T04:43:00;102509.94;;;8.69;81.95
74075;BME280;62428;51.412;5.432;2022-09-21T04:45:25;102503.75;;;8.69;82.07
74075;BME280;62428;51.412;5.432;2022-09-21T04:47:51;102505.38;;;8.70;81.99
74075;BME280;62428;51.412;5.432;2022-09-21T04:50:16;102508.06;;;8.70;82.37
74075;BME280;62428;51.412;5.432;2022-09-21T04:52:41;102509.22;;;8.74;82.74
74075;BME280;62428;51.412;5.432;2022-09-21T04:55:07;102512.69;;;8.74;82.54
74075;BME280;62428;51.412;5.432;2022-09-21T04:57:32;102510.84;;;8.75;82.61
74075;BME280;62428;51.412;5.432;2022-09-21T05:00:00;102512.69;;;8.74;82.45
74075;BME280;62428;51.412;5.432;2022-09-21T05:02:25;102508.16;;;8.75;82.83
74075;BME280;62428;51.412;5.432;2022-09-21T05:04:50;102515.38;;;8.74;82.48
74075;BME280;62428;51.412;5.432;2022-09-21T05:07:16;102505.97;;;8.72;82.61
74075;BME280;62428;51.412;5.432;2022-09-21T05:09:41;102507.59;;;8.73;82.90
74075;BME280;62428;51.412;5.432;2022-09-21T05:12:25;102507.09;;;8.76;83.24
74075;BME280;62428;51.412;5.432;2022-09-21T05:14:51;102515.97;;;8.76;83.18
74075;BME280;62428;51.412;5.432;2022-09-21T05:17:16;102516.78;;;8.77;83.05
74075;BME280;62428;51.412;5.432;2022-09-21T05:19:41;102506.88;;;8.77;83.12
74075;BME280;62428;51.412;5.432;2022-09-21T05:22:07;102515.72;;;8.78;83.32
74075;BME280;62428;51.412;5.432;2022-09-21T05:24:32;102514.66;;;8.79;83.08
74075;BME280;62428;51.412;5.432;2022-09-21T05:26:57;102517.59;;;8.77;83.35
74075;BME280;62428;51.412;5.432;2022-09-21T05:29:23;102515.97;;;8.76;83.39
74075;BME280;62428;51.412;5.432;2022-09-21T05:32:00;102517.59;;;8.77;83.01
74075;BME280;62428;51.412;5.432;2022-09-21T05:35:09;102518.72;;;8.81;83.17
74075;BME280;62428;51.412;5.432;2022-09-21T05:37:39;102524.94;;;8.82;83.81
74075;BME280;62428;51.412;5.432;2022-09-21T05:40:08;102536.22;;;8.84;83.83
74075;BME280;62428;51.412;5.432;2022-09-21T05:42:34;102534.91;;;8.87;83.72
74075;BME280;62428;51.412;5.432;2022-09-21T05:45:00;102528.50;;;8.88;83.99
74075;BME280;62428;51.412;5.432;2022-09-21T05:55:39;102536.25;;;9.01;84.33
74075;BME280;62428;51.412;5.432;2022-09-21T06:03:58;102560.94;;;9.15;85.27
74075;BME280;62428;51.412;5.432;2022-09-21T06:06:24;102554.84;;;9.19;85.34
74075;BME280;62428;51.412;5.432;2022-09-21T06:08:50;102549.81;;;9.23;85.60
74075;BME280;62428;51.412;5.432;2022-09-21T06:11:15;102558.75;;;9.29;85.52
74075;BME280;62428;51.412;5.432;2022-09-21T06:13:41;102545.91;;;9.31;85.60
74075;BME280;62428;51.412;5.432;2022-09-21T06:16:06;102556.16;;;9.34;85.51
74075;BME280;62428;51.412;5.432;2022-09-21T06:18:39;102554.91;;;9.36;85.87
74075;BME280;62428;51.412;5.432;2022-09-21T06:21:06;102552.50;;;9.40;85.71
74075;BME280;62428;51.412;5.432;2022-09-21T06:23:32;102558.81;;;9.46;85.79
74075;BME280;62428;51.412;5.432;2022-09-21T06:25:57;102555.63;;;9.49;85.59
74075;BME280;62428;51.412;5.432;2022-09-21T06:28:23;102557.34;;;9.55;85.34
74075;BME280;62428;51.412;5.432;2022-09-21T06:30:53;102556.59;;;9.59;85.46
74075;BME280;62428;51.412;5.432;2022-09-21T06:33:19;102559.38;;;9.65;85.38
74075;BME280;62428;51.412;5.432;2022-09-21T06:35:58;102555.16;;;9.69;85.03
74075;BME280;62428;51.412;5.432;2022-09-21T06:38:25;102556.28;;;9.73;85.07
74075;BME280;62428;51.412;5.432;2022-09-21T06:40:54;102552.31;;;9.75;85.02
74075;BME280;62428;51.412;5.432;2022-09-21T06:43:20;102551.09;;;9.83;85.00
74075;BME280;62428;51.412;5.432;2022-09-21T06:45:56;102559.47;;;9.87;84.41
74075;BME280;62428;51.412;5.432;2022-09-21T06:48:22;102551.97;;;9.89;84.88
74075;BME280;62428;51.412;5.432;2022-09-21T06:50:48;102553.09;;;9.93;84.19
74075;BME280;62428;51.412;5.432;2022-09-21T06:53:14;102555.88;;;9.98;84.37
74075;BME280;62428;51.412;5.432;2022-09-21T06:55:40;102551.91;;;10.00;84.28
74075;BME280;62428;51.412;5.432;2022-09-21T06:58:05;102549.25;;;10.06;83.77
74075;BME280;62428;51.412;5.432;2022-09-21T07:00:31;102550.41;;;10.10;83.98
74075;BME280;62428;51.412;5.432;2022-09-21T07:02:57;102552.91;;;10.16;83.63
74075;BME280;62428;51.412;5.432;2022-09-21T07:05:22;102559.50;;;10.26;83.05
74075;BME280;62428;51.412;5.432;2022-09-21T07:07:55;102564.25;;;10.35;83.27
74075;BME280;62428;51.412;5.432;2022-09-21T07:10:20;102559.56;;;10.48;82.79
74075;BME280;62428;51.412;5.432;2022-09-21T07:12:46;102559.94;;;10.56;82.40
74075;BME280;62428;51.412;5.432;2022-09-21T07:15:11;102562.44;;;10.63;82.72
74075;BME280;62428;51.412;5.432;2022-09-21T07:17:38;102565.19;;;10.68;82.16
74075;BME280;62428;51.412;5.432;2022-09-21T07:20:04;102559.31;;;10.71;81.37
74075;BME280;62428;51.412;5.432;2022-09-21T07:22:32;102557.75;;;10.75;81.06
74075;BME280;62428;51.412;5.432;2022-09-21T07:24:58;102554.38;;;10.85;82.19
74075;BME280;62428;51.412;5.432;2022-09-21T07:27:24;102565.59;;;11.04;81.64
74075;BME280;62428;51.412;5.432;2022-09-21T07:29:50;102557.94;;;11.18;80.90
74075;BME280;62428;51.412;5.432;2022-09-21T07:32:16;102559.97;;;11.33;80.54
74075;BME280;62428;51.412;5.432;2022-09-21T07:34:41;102562.56;;;11.50;79.82
74075;BME280;62428;51.412;5.432;2022-09-21T07:37:07;102561.41;;;11.73;79.51
74075;BME280;62428;51.412;5.432;2022-09-21T07:39:32;102561.66;;;12.04;78.74
74075;BME280;62428;51.412;5.432;2022-09-21T07:41:59;102559.09;;;12.24;77.58
74075;BME280;62428;51.412;5.432;2022-09-21T07:44:24;102556.41;;;12.29;77.18
74075;BME280;62428;51.412;5.432;2022-09-21T07:46:50;102559.47;;;12.43;77.52
74075;BME280;62428;51.412;5.432;2022-09-21T07:49:16;102563.66;;;12.77;75.14
74075;BME280;62428;51.412;5.432;2022-09-21T07:51:41;102564.31;;;13.20;75.87
74075;BME280;62428;51.412;5.432;2022-09-21T07:54:11;102563.84;;;13.59;73.72
74075;BME280;62428;51.412;5.432;2022-09-21T07:56:36;102557.88;;;13.93;71.01
74075;BME280;62428;51.412;5.432;2022-09-21T07:59:03;102556.72;;;14.25;69.82
74075;BME280;62428;51.412;5.432;2022-09-21T08:01:36;102559.63;;;14.43;68.81
74075;BME280;62428;51.412;5.432;2022-09-21T08:04:02;102564.22;;;14.58;67.56
74075;BME280;62428;51.412;5.432;2022-09-21T08:06:29;102562.00;;;14.71;67.50
74075;BME280;62428;51.412;5.432;2022-09-21T08:08:57;102560.28;;;14.85;66.73
74075;BME280;62428;51.412;5.432;2022-09-21T08:11:23;102555.63;;;15.01;65.69
74075;BME280;62428;51.412;5.432;2022-09-21T08:13:56;102550.59;;;15.24;65.32
74075;BME280;62428;51.412;5.432;2022-09-21T08:16:22;102542.66;;;15.37;63.69
74075;BME280;62428;51.412;5.432;2022-09-21T08:18:47;102551.75;;;15.52;62.95
74075;BME280;62428;51.412;5.432;2022-09-21T08:21:13;102552.16;;;15.64;61.90
74075;BME280;62428;51.412;5.432;2022-09-21T08:23:38;102555.34;;;15.76;61.75
74075;BME280;62428;51.412;5.432;2022-09-21T08:26:10;102552.50;;;15.92;60.76
74075;BME280;62428;51.412;5.432;2022-09-21T08:28:36;102551.81;;;16.05;59.95
74075;BME280;62428;51.412;5.432;2022-09-21T08:31:05;102562.56;;;16.16;61.10
74075;BME280;62428;51.412;5.432;2022-09-21T08:33:34;102558.94;;;16.25;60.47
74075;BME280;62428;51.412;5.432;2022-09-21T08:36:00;102567.53;;;16.32;59.03
74075;BME280;62428;51.412;5.432;2022-09-21T08:38:26;102569.22;;;16.28;58.20
74075;BME280;62428;51.412;5.432;2022-09-21T08:40:56;102565.44;;;16.24;58.72
74075;BME280;62428;51.412;5.432;2022-09-21T08:43:30;102561.44;;;16.17;58.88
74075;BME280;62428;51.412;5.432;2022-09-21T08:45:59;102563.13;;;16.12;57.38
74075;BME280;62428;51.412;5.432;2022-09-21T08:48:30;102563.69;;;16.09;57.24
74075;BME280;62428;51.412;5.432;2022-09-21T08:51:03;102576.13;;;16.16;57.81
74075;BME280;62428;51.412;5.432;2022-09-21T08:53:34;102567.91;;;16.21;57.27
74075;BME280;62428;51.412;5.432;2022-09-21T08:56:01;102564.41;;;16.20;57.59
74075;BME280;62428;51.412;5.432;2022-09-21T08:58:29;102566.41;;;16.09;57.64
74075;BME280;62428;51.412;5.432;2022-09-21T09:09:37;102564.47;;;15.86;58.94
74075;BME280;62428;51.412;5.432;2022-09-21T09:18:28;102575.31;;;15.86;60.51
74075;BME280;62428;51.412;5.432;2022-09-21T09:21:07;102569.41;;;15.79;59.49
74075;BME280;62428;51.412;5.432;2022-09-21T09:23:37;102571.91;;;15.70;58.18
74075;BME280;62428;51.412;5.432;2022-09-21T09:26:11;102571.69;;;15.66;59.17
74075;BME280;62428;51.412;5.432;2022-09-21T09:28:54;102573.84;;;15.64;60.59
74075;BME280;62428;51.412;5.432;2022-09-21T09:31:24;102567.41;;;15.55;58.73
74075;BME280;62428;51.412;5.432;2022-09-21T09:34:00;102575.34;;;15.46;58.66
74075;BME280;62428;51.412;5.432;2022-09-21T09:36:30;102569.41;;;15.44;59.63
74075;BME280;62428;51.412;5.432;2022-09-21T09:39:11;102572.41;;;15.43;60.87
74075;BME280;62428;51.412;5.432;2022-09-21T09:41:52;102573.75;;;15.40;60.25
74075;BME280;62428;51.412;5.432;2022-09-21T09:44:36;102574.13;;;15.28;60.37
74075;BME280;62428;51.412;5.432;2022-09-21T09:50:27;102578.75;;;15.28;60.49
74075;BME280;62428;51.412;5.432;2022-09-21T09:53:13;102571.13;;;15.30;59.36
74075;BME280;62428;51.412;5.432;2022-09-21T09:55:43;102564.97;;;15.24;60.68
74075;BME280;62428;51.412;5.432;2022-09-21T09:58:16;102570.69;;;15.17;60.53
74075;BME280;62428;51.412;5.432;2022-09-21T10:00:43;102575.59;;;15.10;57.40
74075;BME280;62428;51.412;5.432;2022-09-21T10:03:18;102575.38;;;14.96;56.08
74075;BME280;62428;51.412;5.432;2022-09-21T10:05:44;102571.09;;;14.90;55.85
74075;BME280;62428;51.412;5.432;2022-09-21T10:11:00;102575.44;;;14.91;55.34
74075;BME280;62428;51.412;5.432;2022-09-21T10:13:32;102573.47;;;15.02;55.02
74075;BME280;62428;51.412;5.432;2022-09-21T10:16:01;102568.78;;;15.18;55.55
74075;BME280;62428;51.412;5.432;2022-09-21T10:20:56;102564.63;;;15.31;54.63
74075;BME280;62428;51.412;5.432;2022-09-21T10:23:23;102567.59;;;15.29;51.55
74075;BME280;62428;51.412;5.432;2022-09-21T10:28:29;102564.50;;;15.12;51.97
74075;BME280;62428;51.412;5.432;2022-09-21T10:31:20;102566.16;;;15.08;55.39
74075;BME280;62428;51.412;5.432;2022-09-21T10:36:37;102549.91;;;15.08;54.56
74075;BME280;62428;51.412;5.432;2022-09-21T10:39:17;102554.41;;;15.23;54.49
74075;BME280;62428;51.412;5.432;2022-09-21T10:41:51;102558.28;;;15.46;54.40
74075;BME280;62428;51.412;5.432;2022-09-21T10:44:18;102557.78;;;15.73;50.43
74075;BME280;62428;51.412;5.432;2022-09-21T10:46:46;102549.78;;;15.92;50.08
74075;BME280;62428;51.412;5.432;2022-09-21T10:49:35;102542.94;;;16.24;51.78
74075;BME280;62428;51.412;5.432;2022-09-21T10:52:00;102543.63;;;16.78;50.95
74075;BME280;62428;51.412;5.432;2022-09-21T10:54:29;102544.16;;;17.37;48.15
74075;BME280;62428;51.412;5.432;2022-09-21T10:57:05;102550.38;;;17.70;46.63
74075;BME280;62428;51.412;5.432;2022-09-21T10:59:33;102548.84;;;17.64;47.01
74075;BME280;62428;51.412;5.432;2022-09-21T11:02:00;102552.50;;;17.40;46.93
74075;BME280;62428;51.412;5.432;2022-09-21T11:04:48;102557.72;;;17.37;50.13
74075;BME280;62428;51.412;5.432;2022-09-21T11:07:29;102554.72;;;17.19;46.81
74075;BME280;62428;51.412;5.432;2022-09-21T11:10:10;102555.63;;;16.96;51.44
74075;BME280;62428;51.412;5.432;2022-09-21T11:12:51;102550.63;;;16.84;50.24
74075;BME280;62428;51.412;5.432;2022-09-21T11:15:29;102537.59;;;16.62;49.78
74075;BME280;62428;51.412;5.432;2022-09-21T11:18:05;102545.25;;;16.36;49.22
74075;BME280;62428;51.412;5.432;2022-09-21T11:20:57;102540.53;;;16.65;50.36
74075;BME280;62428;51.412;5.432;2022-09-21T11:23:42;102548.34;;;17.62;48.70
74075;BME280;62428;51.412;5.432;2022-09-21T11:26:23;102540.78;;;18.47;46.81
74075;BME280;62428;51.412;5.432;2022-09-21T11:32:12;102548.72;;;18.57;47.09
74075;BME280;62428;51.412;5.432;2022-09-21T11:38:05;102533.81;;;19.05;47.42
74075;BME280;62428;51.412;5.432;2022-09-21T11:49:00;102539.50;;;17.56;47.80
74075;BME280;62428;51.412;5.432;2022-09-21T11:54:42;102525.53;;;17.11;46.10
74075;BME280;62428;51.412;5.432;2022-09-21T11:57:29;102526.44;;;16.87;48.46
74075;BME280;62428;51.412;5.432;2022-09-21T12:00:11;102525.94;;;16.61;46.87
74075;BME280;62428;51.412;5.432;2022-09-21T12:11:24;102519.63;;;17.23;47.50
74075;BME280;62428;51.412;5.432;2022-09-21T12:13:58;102518.41;;;17.15;46.41
74075;BME280;62428;51.412;5.432;2022-09-21T12:19:45;102511.53;;;17.70;47.17
74075;BME280;62428;51.412;5.432;2022-09-21T12:24:53;102506.13;;;18.53;43.10
74075;BME280;62428;51.412;5.432;2022-09-21T12:27:25;102497.28;;;18.19;42.54
74075;BME280;62428;51.412;5.432;2022-09-21T12:29:54;102495.97;;;17.89;42.28
74075;BME280;62428;51.412;5.432;2022-09-21T12:32:36;102496.31;;;17.68;44.14
74075;BME280;62428;51.412;5.432;2022-09-21T12:35:06;102496.09;;;17.51;43.77
74075;BME280;62428;51.412;5.432;2022-09-21T12:45:39;102482.03;;;16.97;43.52
74075;BME280;62428;51.412;5.432;2022-09-21T12:51:04;102477.59;;;16.82;45.01
74075;BME280;62428;51.412;5.432;2022-09-21T12:53:34;102481.44;;;16.81;44.77
74075;BME280;62428;51.412;5.432;2022-09-21T12:56:36;102475.44;;;16.84;46.68
74075;BME280;62428;51.412;5.432;2022-09-21T13:01:51;102468.97;;;16.80;46.86
74075;BME280;62428;51.412;5.432;2022-09-21T13:04:44;102471.53;;;16.71;47.21
74075;BME280;62428;51.412;5.432;2022-09-21T13:12:56;102467.88;;;17.00;48.71
74075;BME280;62428;51.412;5.432;2022-09-21T13:15:32;102468.88;;;17.37;46.49
74075;BME280;62428;51.412;5.432;2022-09-21T13:18:06;102467.84;;;17.80;45.01
74075;BME280;62428;51.412;5.432;2022-09-21T13:20:41;102467.16;;;17.88;43.61
74075;BME280;62428;51.412;5.432;2022-09-21T13:23:15;102466.75;;;18.09;45.37
74075;BME280;62428;51.412;5.432;2022-09-21T13:25:46;102470.75;;;18.89;44.34
74075;BME280;62428;51.412;5.432;2022-09-21T13:28:19;102465.19;;;20.54;40.74
74075;BME280;62428;51.412;5.432;2022-09-21T13:31:37;102471.88;;;21.83;37.27
74075;BME280;62428;51.412;5.432;2022-09-21T13:33:39;102458.75;;;22.90;37.26
74075;BME280;62428;51.412;5.432;2022-09-21T13:36:33;102463.03;;;23.33;39.32
74075;BME280;62428;51.412;5.432;2022-09-21T13:41:34;102459.91;;;23.22;35.74
74075;BME280;62428;51.412;5.432;2022-09-21T13:44:10;102448.50;;;22.45;35.24
74075;BME280;62428;51.412;5.432;2022-09-21T13:54:27;102448.13;;;20.31;40.43
74075;BME280;62428;51.412;5.432;2022-09-21T13:57:04;102452.06;;;19.90;41.32
74075;BME280;62428;51.412;5.432;2022-09-21T13:59:34;102448.72;;;19.93;39.47
74075;BME280;62428;51.412;5.432;2022-09-21T14:02:01;102452.00;;;20.48;38.81
74075;BME280;62428;51.412;5.432;2022-09-21T14:04:30;102450.44;;;20.82;39.04
74075;BME280;62428;51.412;5.432;2022-09-21T14:07:02;102441.72;;;20.27;39.51
74075;BME280;62428;51.412;5.432;2022-09-21T14:09:35;102438.50;;;19.36;40.87
74075;BME280;62428;51.412;5.432;2022-09-21T14:12:09;102429.06;;;18.66;42.57
74075;BME280;62428;51.412;5.432;2022-09-21T14:14:41;102426.94;;;18.27;43.79
74075;BME280;62428;51.412;5.432;2022-09-21T14:17:39;102423.91;;;18.42;44.59
74075;BME280;62428;51.412;5.432;2022-09-21T14:20:28;102427.59;;;18.10;44.61
74075;BME280;62428;51.412;5.432;2022-09-21T14:25:55;102425.22;;;18.67;44.09
74075;BME280;62428;51.412;5.432;2022-09-21T14:28:47;102420.97;;;18.75;43.71
74075;BME280;62428;51.412;5.432;2022-09-21T14:31:33;102420.34;;;18.41;43.97
74075;BME280;62428;51.412;5.432;2022-09-21T14:34:02;102408.34;;;18.06;44.48
74075;BME280;62428;51.412;5.432;2022-09-21T14:36:36;102414.69;;;17.74;44.99
74075;BME280;62428;51.412;5.432;2022-09-21T14:39:14;102410.16;;;17.55;45.31
74075;BME280;62428;51.412;5.432;2022-09-21T14:41:42;102413.47;;;17.52;45.04
74075;BME280;62428;51.412;5.432;2022-09-21T14:44:19;102409.38;;;17.96;45.32
74075;BME280;62428;51.412;5.432;2022-09-21T14:54:45;102413.84;;;17.32;47.38
74075;BME280;62428;51.412;5.432;2022-09-21T15:02:31;102407.22;;;16.72;49.15
74075;BME280;62428;51.412;5.432;2022-09-21T15:05:08;102397.03;;;16.64;49.01
74075;BME280;62428;51.412;5.432;2022-09-21T15:11:08;102402.97;;;16.66;49.25
74075;BME280;62428;51.412;5.432;2022-09-21T15:13:43;102399.38;;;16.51;50.06
74075;BME280;62428;51.412;5.432;2022-09-21T15:18:49;102389.56;;;16.37;51.17
74075;BME280;62428;51.412;5.432;2022-09-21T15:21:27;102394.53;;;16.29;50.42
74075;BME280;62428;51.412;5.432;2022-09-21T15:23:54;102394.69;;;16.19;50.74
74075;BME280;62428;51.412;5.432;2022-09-21T15:26:25;102391.22;;;16.13;50.37
74075;BME280;62428;51.412;5.432;2022-09-21T15:28:55;102387.78;;;16.08;50.87
74075;BME280;62428;51.412;5.432;2022-09-21T15:31:21;102394.88;;;16.04;51.05
74075;BME280;62428;51.412;5.432;2022-09-21T15:33:46;102382.22;;;15.99;51.63
74075;BME280;62428;51.412;5.432;2022-09-21T15:36:22;102379.56;;;15.94;52.04
74075;BME280;62428;51.412;5.432;2022-09-21T15:38:50;102374.72;;;15.91;52.67
74075;BME280;62428;51.412;5.432;2022-09-21T15:44:30;102386.72;;;15.85;53.67
74075;BME280;62428;51.412;5.432;2022-09-21T15:46:53;102379.16;;;15.82;55.19